Time,TemperatureF,DewpointF,PressureIn,WindDirection,WindDirectionDegrees,WindSpeedMPH,WindSpeedGustMPH,Humidity,HourlyPrecipIn,Conditions,Clouds,dailyrainin,SoftwareType,DateUTC
2013-03-26 06:08:00,15.3,9.1,30.53,SSE,164,3.0,4.0,76,0.00,,,0.00,Wunderground v.1.15,2013-03-26 11:08:00,
2013-03-26 06:14:00,15.4,9.2,30.53,SSE,164,3.0,3.0,76,0.00,,,0.00,Wunderground v.1.15,2013-03-26 11:14:00,
2013-03-26 06:15:00,15.4,9.2,30.54,SSE,164,3.0,3.0,76,0.00,,,0.00,Wunderground v.1.15,2013-03-26 11:15:00,
2013-03-26 06:17:00,15.4,9.2,30.54,SSE,164,3.0,3.0,76,0.00,,,0.00,Wunderground v.1.15,2013-03-26 11:17:00,
2013-03-26 06:22:00,15.4,9.2,30.53,SSE,164,2.0,3.0,76,0.00,,,0.00,Wunderground v.1.15,2013-03-26 11:22:00,
2013-03-26 06:28:00,15.5,9.3,30.53,SSE,164,3.0,4.0,76,0.00,,,0.00,Wunderground v.1.15,2013-03-26 11:28:00,
2013-03-26 06:34:00,15.7,9.5,30.53,SSE,164,3.0,4.0,76,0.00,,,0.00,Wunderground v.1.15,2013-03-26 11:34:00,
2013-03-26 06:39:00,15.9,9.7,30.53,SSE,164,3.0,4.0,76,0.00,,,0.00,Wunderground v.1.15,2013-03-26 11:39:00,
2013-03-26 06:45:00,16.0,9.8,30.53,SSE,164,3.0,4.0,76,0.00,,,0.00,Wunderground v.1.15,2013-03-26 11:45:00,
2013-03-26 06:51:00,15.9,9.7,30.53,SSE,164,3.0,3.0,76,0.00,,,0.00,Wunderground v.1.15,2013-03-26 11:51:00,
2013-03-26 06:56:00,15.8,9.3,30.53,SSE,164,2.0,3.0,75,0.00,,,0.00,Wunderground v.1.15,2013-03-26 11:56:00,
2013-03-26 07:01:00,15.6,9.1,30.53,SSE,164,2.0,2.0,75,0.00,,,0.00,Wunderground v.1.15,2013-03-26 12:01:00,
2013-03-26 07:07:00,15.4,8.9,30.53,SSE,164,1.0,2.0,75,0.00,,,0.00,Wunderground v.1.15,2013-03-26 12:07:00,
2013-03-26 07:13:00,15.4,9.2,30.53,SSE,164,2.0,3.0,76,0.00,,,0.00,Wunderground v.1.15,2013-03-26 12:13:00,
2013-03-26 07:18:00,15.3,9.1,30.53,SSE,164,2.0,3.0,76,0.00,,,0.00,Wunderground v.1.15,2013-03-26 12:18:00,
2013-03-26 07:23:00,15.2,9.0,30.53,SSE,164,2.0,2.0,76,0.00,,,0.00,Wunderground v.1.15,2013-03-26 12:23:00,
2013-03-26 07:29:00,15.2,9.0,30.53,SSE,164,2.0,3.0,76,0.00,,,0.00,Wunderground v.1.15,2013-03-26 12:29:00,
2013-03-26 07:34:00,15.2,9.3,30.53,SSE,164,3.0,5.0,77,0.00,,,0.00,Wunderground v.1.15,2013-03-26 12:34:00,
2013-03-26 07:39:00,15.5,9.6,30.53,SSE,164,3.0,5.0,77,0.00,,,0.00,Wunderground v.1.15,2013-03-26 12:39:00,
2013-03-26 07:45:00,15.6,9.7,30.53,SSE,164,3.0,3.0,77,0.00,,,0.00,Wunderground v.1.15,2013-03-26 12:45:00,
2013-03-26 08:35:00,17.0,10.4,30.53,SSE,164,4.0,4.0,75,0.00,,,0.00,Wunderground v.1.15,2013-03-26 13:35:00,
2013-03-26 08:41:00,17.3,10.7,30.53,SSE,164,3.0,4.0,75,0.00,,,0.00,Wunderground v.1.15,2013-03-26 13:41:00,
2013-03-26 08:46:00,17.7,10.8,30.53,SSE,164,3.0,4.0,74,0.00,,,0.00,Wunderground v.1.15,2013-03-26 13:46:00,
2013-03-26 08:52:00,18.2,11.0,30.53,SSE,164,2.0,2.0,73,0.00,,,0.00,Wunderground v.1.15,2013-03-26 13:52:00,
2013-03-26 08:57:00,18.5,11.3,30.52,SSE,164,2.0,3.0,73,0.00,,,0.00,Wunderground v.1.15,2013-03-26 13:57:00,
2013-03-26 09:02:00,18.9,11.7,30.53,SSE,164,2.0,2.0,73,0.00,,,0.00,Wunderground v.1.15,2013-03-26 14:02:00,
2013-03-26 09:08:00,19.3,12.1,30.53,SSE,164,2.0,3.0,73,0.00,,,0.00,Wunderground v.1.15,2013-03-26 14:08:00,
2013-03-26 09:13:00,19.7,12.4,30.52,SSE,164,2.0,2.0,73,0.00,,,0.00,Wunderground v.1.15,2013-03-26 14:13:00,
2013-03-26 09:19:00,19.8,12.5,30.52,SSE,164,2.0,3.0,73,0.00,,,0.00,Wunderground v.1.15,2013-03-26 14:19:00,
2013-03-26 09:25:00,20.1,13.1,30.52,SSE,164,2.0,3.0,74,0.00,,,0.00,Wunderground v.1.15,2013-03-26 14:25:00,
2013-03-26 09:31:00,20.9,13.9,30.52,SSE,164,2.0,3.0,74,0.00,,,0.00,Wunderground v.1.15,2013-03-26 14:31:00,
2013-03-26 09:36:00,21.6,14.3,30.52,SSE,164,2.0,3.0,73,0.00,,,0.00,Wunderground v.1.15,2013-03-26 14:36:00,
2013-03-26 09:41:00,22.3,15.0,30.52,SSE,164,2.0,3.0,73,0.00,,,0.00,Wunderground v.1.15,2013-03-26 14:41:00,
2013-03-26 09:47:00,22.9,15.2,30.51,SSE,164,2.0,3.0,72,0.00,,,0.00,Wunderground v.1.15,2013-03-26 14:47:00,
2013-03-26 09:53:00,23.7,15.7,30.51,SSE,164,2.0,4.0,71,0.00,,,0.00,Wunderground v.1.15,2013-03-26 14:53:00,
2013-03-26 09:59:00,24.2,16.1,30.51,SSE,164,2.0,4.0,71,0.00,,,0.00,Wunderground v.1.15,2013-03-26 14:59:00,
2013-03-26 10:04:00,24.7,16.6,30.51,SSE,164,2.0,4.0,71,0.00,,,0.00,Wunderground v.1.15,2013-03-26 15:04:00,
2013-03-26 10:09:00,25.3,16.9,30.51,SSE,164,3.0,4.0,70,0.00,,,0.00,Wunderground v.1.15,2013-03-26 15:09:00,
2013-03-26 10:15:00,26.1,17.6,30.50,SSE,161,3.0,4.0,70,0.00,,,0.00,Wunderground v.1.15,2013-03-26 15:15:00,
2013-03-26 10:20:00,26.9,18.1,30.50,SSE,150,3.0,3.0,69,0.00,,,0.00,Wunderground v.1.15,2013-03-26 15:20:00,
2013-03-26 10:25:00,27.7,18.8,30.50,SSE,150,3.0,4.0,69,0.00,,,0.00,Wunderground v.1.15,2013-03-26 15:25:00,
2013-03-26 10:31:00,28.6,19.0,30.50,SSE,148,3.0,5.0,67,0.00,,,0.00,Wunderground v.1.15,2013-03-26 15:31:00,
2013-03-26 10:36:00,29.3,19.7,30.50,SSE,148,3.0,5.0,67,0.00,,,0.00,Wunderground v.1.15,2013-03-26 15:36:00,
2013-03-26 10:42:00,30.4,20.4,30.50,SSE,148,2.0,4.0,66,0.00,,,0.00,Wunderground v.1.15,2013-03-26 15:42:00,
2013-03-26 10:48:00,31.7,19.0,30.49,South,173,3.0,9.0,59,0.00,,,0.00,Wunderground v.1.15,2013-03-26 15:48:00,
2013-03-26 10:53:00,32.9,18.9,30.49,SSE,167,7.0,10.0,56,0.00,,,0.00,Wunderground v.1.15,2013-03-26 15:53:00,
2013-03-26 10:59:00,33.1,17.8,30.49,South,170,10.0,14.0,53,0.00,,,0.00,Wunderground v.1.15,2013-03-26 15:59:00,
2013-03-26 11:05:00,33.1,17.8,30.49,South,171,12.0,15.0,53,0.00,,,0.00,Wunderground v.1.15,2013-03-26 16:05:00,
2013-03-26 11:10:00,33.1,17.8,30.49,South,187,12.0,15.0,53,0.00,,,0.00,Wunderground v.1.15,2013-03-26 16:10:00,
2013-03-26 11:15:00,32.8,17.1,30.49,South,177,13.0,17.0,52,0.00,,,0.00,Wunderground v.1.15,2013-03-26 16:15:00,
2013-03-26 11:22:00,33.3,17.5,30.49,SSE,160,12.0,14.0,52,0.00,,,0.00,Wunderground v.1.15,2013-03-26 16:22:00,
2013-03-26 11:28:00,33.4,17.2,30.48,SSE,148,12.0,15.0,51,0.00,,,0.00,Wunderground v.1.15,2013-03-26 16:28:00,
2013-03-26 11:33:00,33.5,16.8,30.48,SSE,165,14.0,17.0,50,0.00,,,0.00,Wunderground v.1.15,2013-03-26 16:33:00,
2013-03-26 11:38:00,34.4,17.2,30.48,SE,144,13.0,17.0,49,0.00,,,0.00,Wunderground v.1.15,2013-03-26 16:38:00,
2013-03-26 11:44:00,34.3,16.1,30.48,SSE,157,13.0,19.0,47,0.00,,,0.00,Wunderground v.1.15,2013-03-26 16:44:00,
2013-03-26 11:49:00,34.1,16.4,30.48,SE,146,15.0,19.0,48,0.00,,,0.00,Wunderground v.1.15,2013-03-26 16:49:00,
2013-03-26 11:55:00,34.5,16.3,30.47,South,180,15.0,19.0,47,0.00,,,0.00,Wunderground v.1.15,2013-03-26 16:55:00,
2013-03-26 12:01:00,35.2,17.0,30.47,SSE,155,13.0,14.0,47,0.00,,,0.00,Wunderground v.1.15,2013-03-26 17:01:00,
2013-03-26 12:07:00,35.5,16.7,30.47,SSE,163,14.0,17.0,46,0.00,,,0.00,Wunderground v.1.15,2013-03-26 17:07:00,
2013-03-26 12:12:00,35.7,16.9,30.46,SSE,165,15.0,17.0,46,0.00,,,0.00,Wunderground v.1.15,2013-03-26 17:12:00,
2013-03-26 12:17:00,36.1,16.8,30.46,SSE,148,15.0,17.0,45,0.00,,,0.00,Wunderground v.1.15,2013-03-26 17:17:00,
2013-03-26 12:23:00,36.4,16.5,30.46,SSE,159,15.0,20.0,44,0.00,,,0.00,Wunderground v.1.15,2013-03-26 17:23:00,
2013-03-26 12:29:00,37.0,16.5,30.45,SSE,167,14.0,20.0,43,0.00,,,0.00,Wunderground v.1.15,2013-03-26 17:29:00,
2013-03-26 12:34:00,37.0,16.0,30.45,South,178,15.0,22.0,42,0.00,,,0.00,Wunderground v.1.15,2013-03-26 17:34:00,
2013-03-26 12:40:00,36.8,15.3,30.45,SSE,168,18.0,18.0,41,0.00,,,0.00,Wunderground v.1.15,2013-03-26 17:40:00,
2013-03-26 12:45:00,37.5,15.9,30.45,SSE,148,17.0,19.0,41,0.00,,,0.00,Wunderground v.1.15,2013-03-26 17:45:00,
2013-03-26 12:50:00,37.9,16.3,30.45,South,185,14.0,14.0,41,0.00,,,0.00,Wunderground v.1.15,2013-03-26 17:50:00,
2013-03-26 12:56:00,37.9,15.7,30.44,South,170,15.0,20.0,40,0.00,,,0.00,Wunderground v.1.15,2013-03-26 17:56:00,
2013-03-26 13:02:00,38.2,16.0,30.44,SSE,148,15.0,15.0,40,0.00,,,0.00,Wunderground v.1.15,2013-03-26 18:02:00,
2013-03-26 13:07:00,38.9,15.4,30.43,SSE,148,13.0,20.0,38,0.00,,,0.00,Wunderground v.1.15,2013-03-26 18:07:00,
2013-03-26 13:13:00,38.9,15.4,30.43,SSE,155,13.0,18.0,38,0.00,,,0.00,Wunderground v.1.15,2013-03-26 18:13:00,
2013-03-26 13:18:00,38.6,14.5,30.42,SSW,196,15.0,20.0,37,0.00,,,0.00,Wunderground v.1.15,2013-03-26 18:18:00,
2013-03-26 13:23:00,39.2,15.7,30.42,SE,138,14.0,17.0,38,0.00,,,0.00,Wunderground v.1.15,2013-03-26 18:23:00,
2013-03-26 13:29:00,39.4,14.6,30.41,South,169,13.0,17.0,36,0.00,,,0.00,Wunderground v.1.15,2013-03-26 18:29:00,
2013-03-26 13:34:00,39.5,14.7,30.41,SSE,152,13.0,17.0,36,0.00,,,0.00,Wunderground v.1.15,2013-03-26 18:34:00,
2013-03-26 13:40:00,40.0,15.8,30.41,SE,140,13.0,13.0,37,0.00,,,0.00,Wunderground v.1.15,2013-03-26 18:40:00,
2013-03-26 13:46:00,39.9,15.7,30.41,SE,135,14.0,18.0,37,0.00,,,0.00,Wunderground v.1.15,2013-03-26 18:46:00,
2013-03-26 13:51:00,40.2,14.7,30.40,SE,142,14.0,16.0,35,0.00,,,0.00,Wunderground v.1.15,2013-03-26 18:51:00,
2013-03-26 13:56:00,40.1,13.9,30.40,SE,144,15.0,19.0,34,0.00,,,0.00,Wunderground v.1.15,2013-03-26 18:56:00,
2013-03-26 14:02:00,40.5,15.0,30.39,SSE,152,14.0,16.0,35,0.00,,,0.00,Wunderground v.1.15,2013-03-26 19:02:00,
2013-03-26 14:08:00,41.0,14.7,30.39,ESE,120,13.0,19.0,34,0.00,,,0.00,Wunderground v.1.15,2013-03-26 19:08:00,
2013-03-26 14:14:00,41.6,14.6,30.39,SSE,148,12.0,17.0,33,0.00,,,0.00,Wunderground v.1.15,2013-03-26 19:14:00,
2013-03-26 14:19:00,41.6,14.6,30.39,SE,138,14.0,21.0,33,0.00,,,0.00,Wunderground v.1.15,2013-03-26 19:19:00,
2013-03-26 14:25:00,42.2,15.1,30.39,SE,136,14.0,15.0,33,0.00,,,0.00,Wunderground v.1.15,2013-03-26 19:25:00,
2013-03-26 14:30:00,42.2,15.1,30.38,SE,130,13.0,13.0,33,0.00,,,0.00,Wunderground v.1.15,2013-03-26 19:30:00,
2013-03-26 14:36:00,42.2,15.1,30.38,SE,142,15.0,19.0,33,0.00,,,0.00,Wunderground v.1.15,2013-03-26 19:36:00,
2013-03-26 14:41:00,42.8,16.3,30.38,South,179,15.0,15.0,34,0.00,,,0.00,Wunderground v.1.15,2013-03-26 19:41:00,
2013-03-26 14:47:00,42.6,15.5,30.38,SE,144,14.0,18.0,33,0.00,,,0.00,Wunderground v.1.15,2013-03-26 19:47:00,
2013-03-26 14:52:00,43.2,16.0,30.37,SE,134,13.0,15.0,33,0.00,,,0.00,Wunderground v.1.15,2013-03-26 19:52:00,
2013-03-26 14:58:00,43.5,14.8,30.37,SE,146,12.0,15.0,31,0.00,,,0.00,Wunderground v.1.15,2013-03-26 19:58:00,
2013-03-26 15:03:00,43.5,14.8,30.36,SE,131,14.0,17.0,31,0.00,,,0.00,Wunderground v.1.15,2013-03-26 20:03:00,
2013-03-26 15:08:00,43.9,15.2,30.36,SE,143,13.0,17.0,31,0.00,,,0.00,Wunderground v.1.15,2013-03-26 20:08:00,
2013-03-26 15:15:00,44.1,15.3,30.35,South,181,13.0,21.0,31,0.00,,,0.00,Wunderground v.1.15,2013-03-26 20:15:00,
2013-03-26 15:20:00,44.0,16.0,30.35,SSE,167,15.0,15.0,32,0.00,,,0.00,Wunderground v.1.15,2013-03-26 20:20:00,
2013-03-26 15:25:00,44.0,16.0,30.34,SSE,150,13.0,16.0,32,0.00,,,0.00,Wunderground v.1.15,2013-03-26 20:25:00,
2013-03-26 15:31:00,44.0,16.0,30.34,South,175,14.0,14.0,32,0.00,,,0.00,Wunderground v.1.15,2013-03-26 20:31:00,
2013-03-26 15:37:00,43.7,16.4,30.34,SE,144,16.0,18.0,33,0.00,,,0.00,Wunderground v.1.15,2013-03-26 20:37:00,
2013-03-26 15:42:00,43.9,16.6,30.34,SE,138,15.0,21.0,33,0.00,,,0.00,Wunderground v.1.15,2013-03-26 20:42:00,
2013-03-26 15:47:00,43.7,16.4,30.35,SE,136,16.0,21.0,33,0.00,,,0.00,Wunderground v.1.15,2013-03-26 20:47:00,
2013-03-26 15:53:00,43.6,17.0,30.34,SSE,151,16.0,17.0,34,0.00,,,0.00,Wunderground v.1.15,2013-03-26 20:53:00,
2013-03-26 15:59:00,43.8,17.2,30.34,SSE,154,16.0,18.0,34,0.00,,,0.00,Wunderground v.1.15,2013-03-26 20:59:00,
2013-03-26 16:04:00,44.3,17.7,30.34,SSE,154,16.0,19.0,34,0.00,,,0.00,Wunderground v.1.15,2013-03-26 21:04:00,
2013-03-26 16:09:00,44.2,18.2,30.34,South,175,16.0,19.0,35,0.00,,,0.00,Wunderground v.1.15,2013-03-26 21:09:00,
2013-03-26 16:14:00,44.2,18.9,30.34,SSE,149,18.0,25.0,36,0.00,,,0.00,Wunderground v.1.15,2013-03-26 21:14:00,
2013-03-26 16:20:00,44.3,19.6,30.33,SSE,149,17.0,21.0,37,0.00,,,0.00,Wunderground v.1.15,2013-03-26 21:20:00,
2013-03-26 16:25:00,44.3,19.6,30.33,SSE,149,17.0,22.0,37,0.00,,,0.00,Wunderground v.1.15,2013-03-26 21:25:00,
2013-03-26 16:31:00,43.8,19.8,30.33,SSE,157,19.0,20.0,38,0.00,,,0.00,Wunderground v.1.15,2013-03-26 21:31:00,
2013-03-26 16:36:00,43.6,20.8,30.33,SE,140,19.0,22.0,40,0.00,,,0.00,Wunderground v.1.15,2013-03-26 21:36:00,
2013-03-26 16:42:00,43.6,20.8,30.33,SSE,168,18.0,25.0,40,0.00,,,0.00,Wunderground v.1.15,2013-03-26 21:42:00,
2013-03-26 16:48:00,43.6,21.4,30.33,SE,135,18.0,29.0,41,0.00,,,0.00,Wunderground v.1.15,2013-03-26 21:48:00,
2013-03-26 16:53:00,43.6,21.4,30.33,SSE,151,19.0,21.0,41,0.00,,,0.00,Wunderground v.1.15,2013-03-26 21:53:00,
2013-03-26 16:58:00,43.7,21.5,30.32,SE,146,18.0,21.0,41,0.00,,,0.00,Wunderground v.1.15,2013-03-26 21:58:00,
2013-03-26 17:04:00,44.0,21.8,30.32,South,173,17.0,24.0,41,0.00,,,0.00,Wunderground v.1.15,2013-03-26 22:04:00,
2013-03-26 17:09:00,44.3,21.5,30.32,SSE,157,17.0,24.0,40,0.00,,,0.00,Wunderground v.1.15,2013-03-26 22:09:00,
2013-03-26 17:15:00,44.2,22.0,30.32,SSE,158,17.0,24.0,41,0.00,,,0.00,Wunderground v.1.15,2013-03-26 22:15:00,
2013-03-26 17:20:00,44.3,22.1,30.32,SE,146,18.0,18.0,41,0.00,,,0.00,Wunderground v.1.15,2013-03-26 22:20:00,
2013-03-26 17:26:00,44.6,22.3,30.31,SSE,155,15.0,18.0,41,0.00,,,0.00,Wunderground v.1.15,2013-03-26 22:26:00,
2013-03-26 17:32:00,44.5,22.2,30.31,SE,138,13.0,19.0,41,0.00,,,0.00,Wunderground v.1.15,2013-03-26 22:32:00,
2013-03-26 17:37:00,44.3,22.6,30.30,SE,134,16.0,24.0,42,0.00,,,0.00,Wunderground v.1.15,2013-03-26 22:37:00,
2013-03-26 17:43:00,44.4,22.7,30.30,ESE,121,17.0,20.0,42,0.00,,,0.00,Wunderground v.1.15,2013-03-26 22:43:00,
2013-03-26 17:48:00,44.6,22.9,30.30,ESE,121,14.0,20.0,42,0.00,,,0.00,Wunderground v.1.15,2013-03-26 22:48:00,
2013-03-26 17:53:00,44.8,22.5,30.30,SSE,162,13.0,15.0,41,0.00,,,0.00,Wunderground v.1.15,2013-03-26 22:53:00,
2013-03-26 17:59:00,44.9,23.2,30.30,ESE,103,15.0,20.0,42,0.00,,,0.00,Wunderground v.1.15,2013-03-26 22:59:00,
2013-03-26 18:04:00,44.9,23.2,30.30,SE,144,15.0,17.0,42,0.00,,,0.00,Wunderground v.1.15,2013-03-26 23:04:00,
2013-03-26 18:10:00,44.8,23.1,30.30,SSE,157,16.0,16.0,42,0.00,,,0.00,Wunderground v.1.15,2013-03-26 23:10:00,
2013-03-26 18:15:00,45.0,23.3,30.29,SE,138,15.0,16.0,42,0.00,,,0.00,Wunderground v.1.15,2013-03-26 23:15:00,
2013-03-26 18:22:00,45.0,23.3,30.29,ESE,123,15.0,23.0,42,0.00,,,0.00,Wunderground v.1.15,2013-03-26 23:22:00,
2013-03-26 18:27:00,45.0,23.3,30.29,SE,131,17.0,23.0,42,0.00,,,0.00,Wunderground v.1.15,2013-03-26 23:27:00,
2013-03-26 18:33:00,45.0,23.8,30.29,SE,144,18.0,21.0,43,0.00,,,0.00,Wunderground v.1.15,2013-03-26 23:33:00,
2013-03-26 18:38:00,45.2,23.4,30.29,SE,124,14.0,21.0,42,0.00,,,0.00,Wunderground v.1.15,2013-03-26 23:38:00,
2013-03-26 18:43:00,45.3,23.5,30.29,ESE,117,10.0,16.0,42,0.00,,,0.00,Wunderground v.1.15,2013-03-26 23:43:00,
2013-03-26 18:49:00,44.8,23.6,30.29,ESE,111,14.0,21.0,43,0.00,,,0.00,Wunderground v.1.15,2013-03-26 23:49:00,
2013-03-26 18:54:00,44.7,23.5,30.29,SE,127,16.0,18.0,43,0.00,,,0.00,Wunderground v.1.15,2013-03-26 23:54:00,
2013-03-26 18:59:00,44.6,23.5,30.29,SE,124,15.0,18.0,43,0.00,,,0.00,Wunderground v.1.15,2013-03-26 23:59:00,
2013-03-26 19:05:00,44.6,24.0,30.28,ESE,112,14.0,17.0,44,0.00,,,0.00,Wunderground v.1.15,2013-03-27 00:05:00,
2013-03-26 19:11:00,44.5,23.9,30.29,ESE,119,12.0,13.0,44,0.00,,,0.00,Wunderground v.1.15,2013-03-27 00:11:00,
2013-03-26 19:16:00,44.2,23.6,30.29,ESE,117,11.0,13.0,44,0.00,,,0.00,Wunderground v.1.15,2013-03-27 00:16:00,
2013-03-26 19:22:00,43.9,23.4,30.29,ESE,111,12.0,15.0,44,0.00,,,0.00,Wunderground v.1.15,2013-03-27 00:22:00,
2013-03-26 19:28:00,43.6,23.6,30.29,ESE,103,13.0,16.0,45,0.00,,,0.00,Wunderground v.1.15,2013-03-27 00:28:00,
2013-03-26 19:34:00,43.3,23.4,30.30,ESE,117,13.0,17.0,45,0.00,,,0.00,Wunderground v.1.15,2013-03-27 00:34:00,
2013-03-26 19:40:00,43.0,23.1,30.30,East,94,13.0,16.0,45,0.00,,,0.00,Wunderground v.1.15,2013-03-27 00:40:00,
2013-03-26 19:45:00,42.9,23.5,30.29,East,94,12.0,16.0,46,0.00,,,0.00,Wunderground v.1.15,2013-03-27 00:45:00,
2013-03-26 19:50:00,42.7,23.3,30.29,East,98,12.0,13.0,46,0.00,,,0.00,Wunderground v.1.15,2013-03-27 00:50:00,
2013-03-26 19:56:00,42.4,23.1,30.29,East,91,11.0,13.0,46,0.00,,,0.00,Wunderground v.1.15,2013-03-27 00:56:00,
2013-03-26 20:02:00,42.0,22.7,30.29,East,94,12.0,14.0,46,0.00,,,0.00,Wunderground v.1.15,2013-03-27 01:02:00,
2013-03-26 20:07:00,41.7,22.9,30.29,East,92,13.0,14.0,47,0.00,,,0.00,Wunderground v.1.15,2013-03-27 01:07:00,
2013-03-26 20:13:00,41.4,22.7,30.29,East,94,13.0,14.0,47,0.00,,,0.00,Wunderground v.1.15,2013-03-27 01:13:00,
2013-03-26 20:18:00,41.2,23.0,30.29,East,96,13.0,14.0,48,0.00,,,0.00,Wunderground v.1.15,2013-03-27 01:18:00,
2013-03-26 20:23:00,41.0,22.8,30.29,ESE,105,13.0,15.0,48,0.00,,,0.00,Wunderground v.1.15,2013-03-27 01:23:00,
2013-03-26 20:29:00,40.9,22.7,30.30,ESE,103,13.0,16.0,48,0.00,,,0.00,Wunderground v.1.15,2013-03-27 01:29:00,
2013-03-26 20:34:00,40.8,22.6,30.30,ESE,102,14.0,15.0,48,0.00,,,0.00,Wunderground v.1.15,2013-03-27 01:34:00,
2013-03-26 20:39:00,40.7,23.0,30.30,East,95,13.0,15.0,49,0.00,,,0.00,Wunderground v.1.15,2013-03-27 01:39:00,
2013-03-26 20:45:00,40.5,22.8,30.30,East,86,12.0,14.0,49,0.00,,,0.00,Wunderground v.1.15,2013-03-27 01:45:00,
2013-03-26 20:50:00,40.1,22.4,30.30,East,85,12.0,14.0,49,0.00,,,0.00,Wunderground v.1.15,2013-03-27 01:50:00,
2013-03-26 20:55:00,39.8,22.7,30.30,East,88,12.0,15.0,50,0.00,,,0.00,Wunderground v.1.15,2013-03-27 01:55:00,
2013-03-26 21:00:00,39.6,22.9,30.31,East,96,13.0,14.0,51,0.00,,,0.00,Wunderground v.1.15,2013-03-27 02:00:00,
2013-03-26 21:06:00,39.3,22.7,30.31,East,92,13.0,17.0,51,0.00,,,0.00,Wunderground v.1.15,2013-03-27 02:06:00,
2013-03-26 21:11:00,39.2,23.0,30.31,East,85,14.0,14.0,52,0.00,,,0.00,Wunderground v.1.15,2013-03-27 02:11:00,
2013-03-26 21:17:00,39.1,22.9,30.31,East,100,13.0,17.0,52,0.00,,,0.00,Wunderground v.1.15,2013-03-27 02:17:00,
2013-03-26 21:22:00,39.1,22.9,30.31,East,86,14.0,15.0,52,0.00,,,0.00,Wunderground v.1.15,2013-03-27 02:22:00,
2013-03-26 21:27:00,39.1,23.4,30.31,East,99,14.0,17.0,53,0.00,,,0.00,Wunderground v.1.15,2013-03-27 02:27:00,
2013-03-26 21:32:00,39.2,23.5,30.31,ESE,103,14.0,17.0,53,0.00,,,0.00,Wunderground v.1.15,2013-03-27 02:32:00,
2013-03-26 21:38:00,39.1,23.4,30.31,East,94,13.0,18.0,53,0.00,,,0.00,Wunderground v.1.15,2013-03-27 02:38:00,
2013-03-26 21:43:00,39.0,23.3,30.31,East,98,13.0,16.0,53,0.00,,,0.00,Wunderground v.1.15,2013-03-27 02:43:00,
2013-03-26 21:49:00,38.8,23.1,30.31,East,86,13.0,17.0,53,0.00,,,0.00,Wunderground v.1.15,2013-03-27 02:49:00,
2013-03-26 21:54:00,38.7,23.5,30.31,East,101,13.0,17.0,54,0.00,,,0.00,Wunderground v.1.15,2013-03-27 02:54:00,
2013-03-26 22:00:00,38.6,23.4,30.31,East,98,14.0,14.0,54,0.00,,,0.00,Wunderground v.1.15,2013-03-27 03:00:00,
2013-03-26 22:05:00,38.4,23.2,30.32,East,101,15.0,16.0,54,0.00,,,0.00,Wunderground v.1.15,2013-03-27 03:05:00,
2013-03-26 22:11:00,38.2,23.4,30.32,East,99,13.0,16.0,55,0.00,,,0.00,Wunderground v.1.15,2013-03-27 03:11:00,
2013-03-26 22:16:00,38.1,23.3,30.32,East,96,14.0,16.0,55,0.00,,,0.00,Wunderground v.1.15,2013-03-27 03:16:00,
2013-03-26 22:22:00,38.0,23.3,30.32,East,86,14.0,16.0,55,0.00,,,0.00,Wunderground v.1.15,2013-03-27 03:22:00,
2013-03-26 22:28:00,37.9,23.2,30.32,East,99,13.0,16.0,55,0.00,,,0.00,Wunderground v.1.15,2013-03-27 03:28:00,
2013-03-26 22:34:00,37.9,23.6,30.32,East,100,13.0,19.0,56,0.00,,,0.00,Wunderground v.1.15,2013-03-27 03:34:00,
2013-03-26 22:40:00,37.8,23.5,30.32,ESE,109,13.0,14.0,56,0.00,,,0.00,Wunderground v.1.15,2013-03-27 03:40:00,
2013-03-26 22:45:00,37.9,23.6,30.32,ESE,115,13.0,21.0,56,0.00,,,0.00,Wunderground v.1.15,2013-03-27 03:45:00,
2013-03-26 22:51:00,37.8,23.1,30.32,East,99,14.0,14.0,55,0.00,,,0.00,Wunderground v.1.15,2013-03-27 03:51:00,
2013-03-26 22:57:00,37.7,23.0,30.32,East,82,12.0,15.0,55,0.00,,,0.00,Wunderground v.1.15,2013-03-27 03:57:00,
2013-03-26 23:00:00,37.7,23.0,30.32,ESE,102,12.0,16.0,55,0.00,,,0.00,Wunderground v.1.15,2013-03-27 04:00:00,
2013-03-26 23:02:00,37.7,23.0,30.31,ESE,110,13.0,16.0,55,0.00,,,0.00,Wunderground v.1.15,2013-03-27 04:02:00,
2013-03-26 23:04:00,37.6,23.3,30.32,East,99,13.0,16.0,56,0.00,,,0.00,Wunderground v.1.15,2013-03-27 04:04:00,
2013-03-26 23:07:00,37.5,23.2,30.31,ESE,111,14.0,16.0,56,0.00,,,0.00,Wunderground v.1.15,2013-03-27 04:07:00,
2013-03-26 23:12:00,37.5,23.2,30.31,East,98,13.0,16.0,56,0.00,,,0.00,Wunderground v.1.15,2013-03-27 04:12:00,
2013-03-26 23:17:00,37.4,23.1,30.30,East,101,15.0,18.0,56,0.00,,,0.00,Wunderground v.1.15,2013-03-27 04:17:00,
2013-03-26 23:23:00,37.2,22.9,30.30,ESE,121,15.0,15.0,56,0.00,,,0.00,Wunderground v.1.15,2013-03-27 04:23:00,
2013-03-26 23:28:00,37.1,23.3,30.31,ESE,119,11.0,15.0,57,0.00,,,0.00,Wunderground v.1.15,2013-03-27 04:28:00,
2013-03-26 23:34:00,37.1,23.3,30.31,ESE,122,9.0,10.0,57,0.00,,,0.00,Wunderground v.1.15,2013-03-27 04:34:00,
2013-03-26 23:39:00,37.0,23.2,30.31,ESE,119,10.0,15.0,57,0.00,,,0.00,Wunderground v.1.15,2013-03-27 04:39:00,
2013-03-26 23:44:00,37.0,23.2,30.31,ESE,111,10.0,17.0,57,0.00,,,0.00,Wunderground v.1.15,2013-03-27 04:44:00,
2013-03-26 23:50:00,36.8,23.4,30.31,East,93,11.0,11.0,58,0.00,,,0.00,Wunderground v.1.15,2013-03-27 04:50:00,
2013-03-26 23:55:00,36.7,23.3,30.31,East,92,11.0,13.0,58,0.00,,,0.00,Wunderground v.1.15,2013-03-27 04:55:00,